createdAt,value
2022-11-15T00:00:36.578Z,9.03
2022-11-15T00:03:05.500Z,9.02
2022-11-15T00:05:39.194Z,9.03
2022-11-15T00:08:09.299Z,9.02
2022-11-15T00:10:40.710Z,9.00
2022-11-15T00:13:14.855Z,9.00
2022-11-15T00:15:44.689Z,8.99
2022-11-15T00:18:16.953Z,8.98
2022-11-15T00:20:46.438Z,8.99
2022-11-15T00:23:17.634Z,8.98
2022-11-15T00:25:48.935Z,8.97
2022-11-15T00:28:19.490Z,9.00
2022-11-15T00:30:48.054Z,9.01
2022-11-15T00:33:17.390Z,9.02
2022-11-15T00:35:47.521Z,9.01
2022-11-15T00:38:17.422Z,9.03
2022-11-15T00:40:48.815Z,9.04
2022-11-15T00:43:17.607Z,9.04
2022-11-15T00:45:47.451Z,9.04
2022-11-15T00:48:16.783Z,9.04
2022-11-15T00:50:46.958Z,9.06
2022-11-15T00:53:15.966Z,9.09
2022-11-15T00:55:45.509Z,9.11
2022-11-15T00:58:15.434Z,9.13
2022-11-15T01:00:44.947Z,9.15
2022-11-15T01:03:14.991Z,9.15
2022-11-15T01:05:44.083Z,9.19
2022-11-15T01:08:16.474Z,9.28
2022-11-15T01:10:45.718Z,9.34
2022-11-15T01:13:16.687Z,9.38
2022-11-15T01:15:46.813Z,9.40
2022-11-15T01:18:16.546Z,9.44
2022-11-15T01:20:46.116Z,9.50
2022-11-15T01:23:16.504Z,9.50
2022-11-15T01:25:46.034Z,9.56
2022-11-15T01:28:16.943Z,9.61
2022-11-15T01:30:47.038Z,9.64
2022-11-15T01:33:17.092Z,9.70
2022-11-15T01:35:46.690Z,9.73
2022-11-15T01:38:15.723Z,9.77
2022-11-15T01:40:45.707Z,9.81
2022-11-15T01:43:29.791Z,9.86
2022-11-15T01:46:06.500Z,9.89
2022-11-15T01:48:38.656Z,9.91
2022-11-15T01:51:13.956Z,9.92
2022-11-15T01:53:51.053Z,9.97
2022-11-15T01:56:25.397Z,9.98
2022-11-15T01:58:59.082Z,10.02
2022-11-15T02:01:31.065Z,10.04
2022-11-15T02:04:06.230Z,10.04
2022-11-15T02:06:37.121Z,10.07
2022-11-15T02:09:06.852Z,10.11
2022-11-15T02:11:37.468Z,10.16
2022-11-15T02:14:10.966Z,10.19
2022-11-15T02:16:56.676Z,10.21
2022-11-15T02:20:33.594Z,10.24
2022-11-15T02:23:58.962Z,10.27
2022-11-15T02:27:17.409Z,10.26
2022-11-15T02:30:26.870Z,10.28
2022-11-15T02:33:04.157Z,10.29
2022-11-15T02:35:46.783Z,10.31
2022-11-15T02:38:25.069Z,10.31
2022-11-15T02:41:01.869Z,10.31
2022-11-15T02:43:57.291Z,10.32
2022-11-15T02:46:55.739Z,10.34
2022-11-15T02:49:28.910Z,10.33
2022-11-15T02:51:58.534Z,10.32
2022-11-15T02:54:33.456Z,10.31
2022-11-15T02:57:07.869Z,10.30
2022-11-15T03:00:07.475Z,10.28
2022-11-15T03:03:19.988Z,10.25
2022-11-15T03:06:00.113Z,10.25
2022-11-15T03:08:39.745Z,10.23
2022-11-15T03:11:15.948Z,10.21
2022-11-15T03:13:59.057Z,10.21
2022-11-15T03:16:36.700Z,10.17
2022-11-15T03:19:17.277Z,10.15
2022-11-15T03:21:48.661Z,10.15
2022-11-15T03:24:25.829Z,10.16
2022-11-15T03:26:59.533Z,10.17
2022-11-15T03:29:35.413Z,10.17
2022-11-15T03:32:14.026Z,10.18
2022-11-15T03:34:50.320Z,10.18
2022-11-15T03:37:26.675Z,10.18
2022-11-15T03:39:56.277Z,10.18
2022-11-15T03:42:34.311Z,10.17
2022-11-15T03:45:13.159Z,10.19
2022-11-15T03:47:50.584Z,10.19
2022-11-15T03:50:24.986Z,10.17
2022-11-15T03:52:57.553Z,10.15
2022-11-15T03:55:27.748Z,10.16
2022-11-15T03:58:02.578Z,10.14
2022-11-15T04:00:32.207Z,10.13
2022-11-15T04:03:01.288Z,10.17
2022-11-15T04:05:31.493Z,10.16
2022-11-15T04:08:01.705Z,10.19
2022-11-15T04:10:31.163Z,10.19
2022-11-15T04:12:59.733Z,10.17
2022-11-15T04:15:29.799Z,10.15
2022-11-15T04:18:00.432Z,10.13
2022-11-15T04:20:50.884Z,10.11
2022-11-15T04:23:39.729Z,10.07
2022-11-15T04:26:13.780Z,10.02
2022-11-15T04:28:57.306Z,10.01
2022-11-15T04:31:26.932Z,9.97
2022-11-15T04:33:56.834Z,9.92
2022-11-15T04:36:46.137Z,9.85
2022-11-15T04:39:16.248Z,9.83
2022-11-15T04:41:46.060Z,9.80
2022-11-15T04:44:19.780Z,9.77
2022-11-15T04:46:49.731Z,9.76
2022-11-15T04:49:19.880Z,9.73
2022-11-15T04:51:50.573Z,9.69
2022-11-15T04:54:19.768Z,9.69
2022-11-15T04:56:48.875Z,9.69
2022-11-15T04:59:19.566Z,9.68
2022-11-15T05:01:48.815Z,9.66
2022-11-15T05:04:20.658Z,9.66
2022-11-15T05:06:54.100Z,9.66
2022-11-15T05:09:23.969Z,9.65
2022-11-15T05:11:53.617Z,9.65
2022-11-15T05:14:23.305Z,9.65
2022-11-15T05:16:52.966Z,9.67
2022-11-15T05:19:23.230Z,9.68
2022-11-15T05:21:54.983Z,9.68
2022-11-15T05:24:24.864Z,9.68
2022-11-15T05:26:55.425Z,9.69
2022-11-15T05:29:25.535Z,9.72
2022-11-15T05:31:54.924Z,9.72
2022-11-15T05:34:26.692Z,9.73
2022-11-15T05:36:58.040Z,9.75
2022-11-15T05:39:27.950Z,9.76
2022-11-15T05:42:04.310Z,9.76
2022-11-15T05:44:36.812Z,9.78
2022-11-15T05:47:10.754Z,9.78
2022-11-15T05:49:44.894Z,9.81
2022-11-15T05:52:22.544Z,9.83
2022-11-15T05:54:53.382Z,9.86
2022-11-15T05:57:24.088Z,9.89
2022-11-15T05:59:53.924Z,9.90
2022-11-15T06:02:23.577Z,9.91
2022-11-15T06:04:52.912Z,9.92
2022-11-15T06:07:23.976Z,9.93
2022-11-15T06:09:53.648Z,9.93
2022-11-15T06:12:23.374Z,9.94
2022-11-15T06:14:52.454Z,9.94
2022-11-15T06:17:22.805Z,9.96
2022-11-15T06:19:53.460Z,9.96
2022-11-15T06:22:24.244Z,9.95
2022-11-15T06:24:54.301Z,9.95
2022-11-15T06:27:22.793Z,9.96
2022-11-15T06:29:52.476Z,9.95
2022-11-15T06:32:21.953Z,9.94
2022-11-15T06:34:51.708Z,9.95
2022-11-15T06:37:23.205Z,9.92
2022-11-15T06:39:52.644Z,9.90
2022-11-15T06:42:22.292Z,9.89
2022-11-15T06:44:51.877Z,9.90
2022-11-15T06:47:21.691Z,9.90
2022-11-15T06:49:51.377Z,9.89
2022-11-15T06:52:20.712Z,9.89
2022-11-15T06:54:51.776Z,9.88
2022-11-15T06:57:21.367Z,9.89
2022-11-15T06:59:51.419Z,9.89
2022-11-15T07:02:20.516Z,9.90
2022-11-15T07:04:50.558Z,9.88
2022-11-15T07:07:20.817Z,9.87
2022-11-15T07:09:50.754Z,9.90
2022-11-15T07:12:20.793Z,9.87
2022-11-15T07:14:49.659Z,9.89
2022-11-15T07:17:19.777Z,9.91
2022-11-15T07:19:50.012Z,9.91
2022-11-15T07:22:20.259Z,9.91
2022-11-15T07:24:50.232Z,9.92
2022-11-15T07:27:20.223Z,9.93
2022-11-15T07:29:50.176Z,9.93
2022-11-15T07:32:19.381Z,9.94
2022-11-15T07:34:49.601Z,9.95
2022-11-15T07:37:19.235Z,9.96
2022-11-15T07:39:50.976Z,9.97
2022-11-15T07:42:38.611Z,9.97
2022-11-15T07:45:08.831Z,9.98
2022-11-15T07:47:39.094Z,9.98
2022-11-15T07:50:09.894Z,9.98
2022-11-15T07:52:41.387Z,9.99
2022-11-15T07:55:12.263Z,10.03
2022-11-15T07:57:41.975Z,10.05
2022-11-15T08:00:13.955Z,10.07
2022-11-15T08:02:43.962Z,10.09
2022-11-15T08:05:13.981Z,10.11
2022-11-15T08:07:44.077Z,10.13
2022-11-15T08:10:17.785Z,10.15
2022-11-15T08:12:49.625Z,10.17
2022-11-15T08:15:20.113Z,10.19
2022-11-15T08:17:49.272Z,10.21
2022-11-15T08:20:18.566Z,10.22
2022-11-15T08:22:48.916Z,10.24
2022-11-15T08:25:20.926Z,10.25
2022-11-15T08:27:53.165Z,10.27
2022-11-15T08:30:22.023Z,10.29
2022-11-15T08:32:51.743Z,10.31
2022-11-15T08:35:26.294Z,10.31
2022-11-15T08:37:59.382Z,10.32
2022-11-15T08:40:30.659Z,10.35
2022-11-15T08:43:03.591Z,10.36
2022-11-15T08:45:33.071Z,10.40
2022-11-15T08:48:04.261Z,10.42
2022-11-15T08:50:33.387Z,10.44
2022-11-15T08:53:09.559Z,10.48
2022-11-15T08:55:41.834Z,10.49
2022-11-15T08:58:11.683Z,10.52
2022-11-15T09:00:41.803Z,10.56
2022-11-15T09:03:11.508Z,10.58
2022-11-15T09:05:40.534Z,10.60
2022-11-15T09:08:32.760Z,10.63
2022-11-15T09:11:00.845Z,10.66
2022-11-15T09:13:30.695Z,10.67
2022-11-15T09:16:00.731Z,10.69
2022-11-15T09:18:30.396Z,10.73
2022-11-15T09:21:00.941Z,10.75
2022-11-15T09:23:31.050Z,10.79
2022-11-15T09:26:06.290Z,10.79
2022-11-15T09:28:35.935Z,10.87
2022-11-15T09:31:08.201Z,10.92
2022-11-15T09:33:37.596Z,10.89
2022-11-15T09:36:10.220Z,10.94
2022-11-15T09:38:40.261Z,10.95
2022-11-15T09:41:34.347Z,10.97
2022-11-15T09:44:33.586Z,11.01
2022-11-15T09:47:28.847Z,11.05
2022-11-15T09:50:04.140Z,11.09
2022-11-15T09:52:36.587Z,11.14
2022-11-15T09:55:12.441Z,11.18
2022-11-15T09:57:56.789Z,11.21
2022-11-15T10:00:52.885Z,11.21
2022-11-15T10:03:31.931Z,11.26
2022-11-15T10:06:07.129Z,11.29
2022-11-15T10:09:00.378Z,11.32
2022-11-15T10:11:38.281Z,11.34
2022-11-15T10:14:18.679Z,11.37
2022-11-15T10:17:29.621Z,11.41
2022-11-15T10:20:15.660Z,11.44
2022-11-15T10:22:50.585Z,11.49
2022-11-15T10:25:24.836Z,11.48
2022-11-15T10:28:00.892Z,11.49
2022-11-15T10:30:39.555Z,11.52
2022-11-15T10:33:32.189Z,11.57
2022-11-15T10:36:23.225Z,11.62
2022-11-15T10:39:00.430Z,11.66
2022-11-15T10:41:40.978Z,11.73
2022-11-15T10:44:48.325Z,11.77
2022-11-15T10:47:37.676Z,11.77
2022-11-15T10:50:31.088Z,11.84
2022-11-15T10:53:04.063Z,11.89
2022-11-15T10:55:36.780Z,11.92
2022-11-15T10:58:22.401Z,11.94
2022-11-15T11:00:54.537Z,11.99
2022-11-15T11:03:36.028Z,12.01
2022-11-15T11:06:12.918Z,12.05
2022-11-15T11:08:42.784Z,12.07
2022-11-15T11:11:12.011Z,12.12
2022-11-15T11:13:42.211Z,12.15
2022-11-15T11:16:50.720Z,12.17
2022-11-15T11:19:52.078Z,12.24
2022-11-15T11:22:34.757Z,12.27
2022-11-15T11:25:22.117Z,12.30
2022-11-15T11:28:11.623Z,12.33
2022-11-15T11:30:57.744Z,12.36
2022-11-15T11:33:34.976Z,12.40
2022-11-15T11:36:24.205Z,12.41
2022-11-15T11:39:08.220Z,12.45
2022-11-15T11:41:57.840Z,12.48
2022-11-15T11:44:59.887Z,12.54
2022-11-15T11:47:36.437Z,12.53
2022-11-15T11:50:18.627Z,12.57
2022-11-15T11:53:03.884Z,12.63
2022-11-15T11:55:40.737Z,12.68
2022-11-15T11:58:18.476Z,12.71
2022-11-15T12:00:55.695Z,12.74
2022-11-15T12:03:32.662Z,12.78
2022-11-15T12:06:09.025Z,12.80
2022-11-15T12:08:51.073Z,12.81
2022-11-15T12:11:29.078Z,12.85
2022-11-15T12:14:05.787Z,12.85
2022-11-15T12:16:36.512Z,12.89
2022-11-15T12:19:07.038Z,12.88
2022-11-15T12:21:47.026Z,12.90
2022-11-15T12:24:26.317Z,12.94
2022-11-15T12:27:04.669Z,12.94
2022-11-15T12:29:41.788Z,12.99
2022-11-15T12:32:26.859Z,12.97
2022-11-15T12:34:58.019Z,12.99
2022-11-15T12:37:56.460Z,12.98
2022-11-15T12:40:34.453Z,12.99
2022-11-15T12:43:42.404Z,13.00
2022-11-15T12:46:45.491Z,13.04
2022-11-15T12:49:48.521Z,13.03
2022-11-15T12:52:18.397Z,13.07
2022-11-15T12:55:35.553Z,13.09
2022-11-15T12:58:33.821Z,13.10
2022-11-15T13:01:03.029Z,13.10
2022-11-15T13:03:31.761Z,13.14
2022-11-15T13:06:42.080Z,13.17
2022-11-15T13:09:54.997Z,13.19
2022-11-15T13:13:00.174Z,13.23
2022-11-15T13:15:47.935Z,13.22
2022-11-15T13:18:36.831Z,13.23
2022-11-15T13:21:38.623Z,13.23
2022-11-15T13:24:14.876Z,13.25
2022-11-15T13:26:44.539Z,13.26
2022-11-15T13:29:23.583Z,13.27
2022-11-15T13:31:53.589Z,13.30
2022-11-15T13:37:41.206Z,13.35
2022-11-15T13:40:26.053Z,13.38
2022-11-15T13:42:56.284Z,13.38
2022-11-15T13:45:27.408Z,13.41
2022-11-15T13:48:00.360Z,13.40
2022-11-15T13:50:35.969Z,13.43
2022-11-15T13:53:08.256Z,13.44
2022-11-15T13:55:37.209Z,13.46
2022-11-15T13:58:08.981Z,13.44
2022-11-15T14:00:44.564Z,13.46
2022-11-15T14:03:22.179Z,13.48
2022-11-15T14:06:08.883Z,13.46
2022-11-15T14:08:38.784Z,13.49
2022-11-15T14:11:18.035Z,13.50
2022-11-15T14:14:14.110Z,13.47
2022-11-15T14:16:47.722Z,13.47
2022-11-15T14:19:42.066Z,13.45
2022-11-15T14:22:21.504Z,13.46
2022-11-15T14:25:17.170Z,13.47
2022-11-15T14:28:07.708Z,13.49
2022-11-15T14:30:37.693Z,13.49
2022-11-15T14:33:24.867Z,13.47
2022-11-15T14:35:56.860Z,13.46
2022-11-15T14:38:27.526Z,13.44
2022-11-15T14:40:57.934Z,13.42
2022-11-15T14:43:27.475Z,13.43
2022-11-15T14:45:56.231Z,13.44
2022-11-15T14:48:27.206Z,13.39
2022-11-15T14:50:57.431Z,13.39
2022-11-15T14:53:27.452Z,13.37
2022-11-15T14:55:58.092Z,13.36
2022-11-15T14:58:27.961Z,13.36
2022-11-15T15:00:57.498Z,13.34
2022-11-15T15:03:27.408Z,13.33
2022-11-15T15:05:57.448Z,13.31
2022-11-15T15:08:27.116Z,13.28
2022-11-15T15:10:56.479Z,13.28
2022-11-15T15:13:27.762Z,13.26
2022-11-15T15:15:57.498Z,13.25
2022-11-15T15:18:29.231Z,13.26
2022-11-15T15:21:04.067Z,13.25
2022-11-15T15:23:33.288Z,13.24
2022-11-15T15:26:02.239Z,13.23
2022-11-15T15:28:34.767Z,13.21
2022-11-15T15:31:05.366Z,13.20
2022-11-15T15:33:35.711Z,13.16
2022-11-15T15:36:05.892Z,13.13
2022-11-15T15:38:36.146Z,13.13
2022-11-15T15:41:07.567Z,13.09
2022-11-15T15:43:37.225Z,13.05
2022-11-15T15:46:06.980Z,13.02
2022-11-15T15:48:38.285Z,13.00
2022-11-15T15:51:15.389Z,12.91
2022-11-15T15:53:47.727Z,12.88
2022-11-15T15:56:17.162Z,12.84
2022-11-15T15:58:46.176Z,12.79
2022-11-15T16:01:14.779Z,12.76
2022-11-15T16:03:45.242Z,12.74
2022-11-15T16:06:41.421Z,12.71
2022-11-15T16:09:16.898Z,12.65
2022-11-15T16:11:48.816Z,12.59
2022-11-15T16:14:17.400Z,12.61
2022-11-15T16:16:47.634Z,12.58
2022-11-15T16:19:17.994Z,12.56
2022-11-15T16:21:47.028Z,12.54
2022-11-15T16:24:15.597Z,12.51
2022-11-15T16:26:45.318Z,12.51
2022-11-15T16:29:13.985Z,12.49
2022-11-15T16:31:43.375Z,12.48
2022-11-15T16:34:13.981Z,12.43
2022-11-15T16:36:43.903Z,12.43
2022-11-15T16:39:15.911Z,12.37
2022-11-15T16:41:47.669Z,12.39
2022-11-15T16:44:17.516Z,12.38
2022-11-15T16:46:51.932Z,12.37
2022-11-15T16:49:23.327Z,12.36
2022-11-15T16:51:53.339Z,12.33
2022-11-15T16:54:23.675Z,12.33
2022-11-15T16:56:52.355Z,12.36
2022-11-15T16:59:21.835Z,12.35
2022-11-15T17:01:53.952Z,12.34
2022-11-15T17:04:24.221Z,12.35
2022-11-15T17:06:55.995Z,12.32
2022-11-15T17:09:26.231Z,12.31
2022-11-15T17:11:55.588Z,12.31
2022-11-15T17:14:24.506Z,12.33
2022-11-15T17:16:57.644Z,12.30
2022-11-15T17:19:27.554Z,12.28
2022-11-15T17:21:57.608Z,12.28
2022-11-15T17:24:27.146Z,12.27
2022-11-15T17:26:55.724Z,12.28
2022-11-15T17:29:24.908Z,12.24
2022-11-15T17:31:55.155Z,12.22
2022-11-15T17:34:24.445Z,12.20
2022-11-15T17:36:54.824Z,12.21
2022-11-15T17:39:25.878Z,12.20
2022-11-15T17:41:55.559Z,12.22
2022-11-15T17:44:25.473Z,12.22
2022-11-15T17:46:55.549Z,12.21
2022-11-15T17:49:25.263Z,12.17
2022-11-15T17:51:55.479Z,12.17
2022-11-15T17:54:26.506Z,12.17
2022-11-15T17:56:56.979Z,12.17
2022-11-15T17:59:27.081Z,12.14
2022-11-15T18:01:56.365Z,12.11
2022-11-15T18:04:28.500Z,12.10
2022-11-15T18:06:58.352Z,12.11
2022-11-15T18:09:29.993Z,12.10
2022-11-15T18:11:59.419Z,12.09
2022-11-15T18:14:30.120Z,12.06
2022-11-15T18:17:00.183Z,12.05
2022-11-15T18:19:30.272Z,12.02
2022-11-15T18:22:01.875Z,12.05
2022-11-15T18:24:35.056Z,12.03
2022-11-15T18:27:06.750Z,12.02
2022-11-15T18:29:38.292Z,12.02
2022-11-15T18:32:11.880Z,12.02
2022-11-15T18:34:41.051Z,12.02
2022-11-15T18:37:10.943Z,12.02
2022-11-15T18:39:41.511Z,12.00
2022-11-15T18:42:12.435Z,12.01
2022-11-15T18:44:43.162Z,12.00
2022-11-15T18:47:11.856Z,11.98
2022-11-15T18:49:41.466Z,11.97
2022-11-15T18:52:11.027Z,11.96
2022-11-15T18:54:41.499Z,11.98
2022-11-15T18:57:11.027Z,11.99
2022-11-15T18:59:40.551Z,11.94
2022-11-15T19:02:13.708Z,11.92
2022-11-15T19:04:43.172Z,11.92
2022-11-15T19:07:12.846Z,11.91
2022-11-15T19:09:44.602Z,11.92
2022-11-15T19:12:14.885Z,11.91
2022-11-15T19:14:43.790Z,11.93
2022-11-15T19:17:13.885Z,11.91
2022-11-15T19:19:43.605Z,11.90
2022-11-15T19:22:12.251Z,11.88
2022-11-15T19:24:43.183Z,11.86
2022-11-15T19:27:13.279Z,11.84
2022-11-15T19:29:44.489Z,11.81
2022-11-15T19:32:13.566Z,11.79
2022-11-15T19:34:43.276Z,11.79
2022-11-15T19:37:13.615Z,11.80
2022-11-15T19:39:44.602Z,11.79
2022-11-15T19:42:13.926Z,11.74
2022-11-15T19:44:44.478Z,11.75
2022-11-15T19:47:14.741Z,11.73
2022-11-15T19:49:46.633Z,11.72
2022-11-15T19:52:16.628Z,11.74
2022-11-15T19:54:47.605Z,11.72
2022-11-15T19:57:16.783Z,11.69
2022-11-15T19:59:47.198Z,11.68
2022-11-15T20:02:17.760Z,11.68
2022-11-15T20:04:48.049Z,11.69
2022-11-15T20:07:18.708Z,11.68
2022-11-15T20:09:49.854Z,11.68
2022-11-15T20:12:20.131Z,11.67
2022-11-15T20:14:50.641Z,11.66
2022-11-15T20:17:20.597Z,11.65
2022-11-15T20:19:50.545Z,11.64
2022-11-15T20:22:20.671Z,11.64
2022-11-15T20:24:52.947Z,11.63
2022-11-15T20:27:22.891Z,11.60
2022-11-15T20:29:54.648Z,11.62
2022-11-15T20:32:23.247Z,11.60
2022-11-15T20:34:54.108Z,11.61
2022-11-15T20:37:24.372Z,11.60
2022-11-15T20:39:56.440Z,11.60
2022-11-15T20:42:26.733Z,11.59
2022-11-15T20:44:59.791Z,11.59
2022-11-15T20:47:31.872Z,11.58
2022-11-15T20:50:20.722Z,11.57
2022-11-15T20:52:50.425Z,11.56
2022-11-15T20:55:20.880Z,11.54
2022-11-15T20:57:51.414Z,11.56
2022-11-15T21:00:25.940Z,11.55
2022-11-15T21:02:55.504Z,11.54
2022-11-15T21:05:25.453Z,11.53
2022-11-15T21:07:55.043Z,11.54
2022-11-15T21:10:42.652Z,11.55
2022-11-15T21:13:11.970Z,11.55
2022-11-15T21:15:41.546Z,11.54
2022-11-15T21:18:10.027Z,11.55
2022-11-15T21:20:38.752Z,11.54
2022-11-15T21:23:07.449Z,11.55
2022-11-15T21:25:37.763Z,11.55
2022-11-15T21:28:07.447Z,11.56
2022-11-15T21:30:35.880Z,11.57
2022-11-15T21:33:04.859Z,11.60
2022-11-15T21:35:34.701Z,11.60
2022-11-15T21:38:04.075Z,11.63
2022-11-15T21:40:34.077Z,11.63
2022-11-15T21:43:05.214Z,11.63
2022-11-15T21:45:33.992Z,11.65
2022-11-15T21:48:03.439Z,11.63
2022-11-15T21:50:32.274Z,11.65
2022-11-15T21:53:01.302Z,11.64
2022-11-15T21:55:30.463Z,11.64
2022-11-15T21:57:59.899Z,11.63
2022-11-15T22:00:48.782Z,11.65
2022-11-15T22:03:18.217Z,11.65
2022-11-15T22:05:48.115Z,11.63
2022-11-15T22:08:16.631Z,11.63
2022-11-15T22:10:49.055Z,11.62
2022-11-15T22:13:18.157Z,11.61
2022-11-15T22:15:51.447Z,11.59
2022-11-15T22:18:26.246Z,11.60
2022-11-15T22:20:58.554Z,11.60
2022-11-15T22:23:29.718Z,11.60
2022-11-15T22:25:59.660Z,11.57
2022-11-15T22:28:30.453Z,11.58
2022-11-15T22:31:03.031Z,11.58
2022-11-15T22:33:35.158Z,11.59
2022-11-15T22:36:07.256Z,11.57
2022-11-15T22:38:37.130Z,11.56
2022-11-15T22:41:09.283Z,11.56
2022-11-15T22:43:38.475Z,11.57
2022-11-15T22:46:09.307Z,11.57
2022-11-15T22:48:40.315Z,11.58
2022-11-15T22:51:09.728Z,11.58
2022-11-15T22:53:39.637Z,11.58
2022-11-15T22:56:10.916Z,11.56
2022-11-15T22:58:41.460Z,11.59
2022-11-15T23:01:23.626Z,11.60
2022-11-15T23:03:53.731Z,11.61
2022-11-15T23:06:23.816Z,11.60
2022-11-15T23:08:52.471Z,11.62
2022-11-15T23:11:39.625Z,11.60
2022-11-15T23:14:09.393Z,11.60
2022-11-15T23:16:40.823Z,11.61
2022-11-15T23:19:12.741Z,11.62
2022-11-15T23:22:03.024Z,11.61
2022-11-15T23:24:33.540Z,11.61
2022-11-15T23:27:08.418Z,11.61
2022-11-15T23:29:53.463Z,11.61
2022-11-15T23:32:41.637Z,11.61
2022-11-15T23:35:11.275Z,11.59
2022-11-15T23:37:40.752Z,11.61
2022-11-15T23:40:11.689Z,11.60
2022-11-15T23:42:41.739Z,11.61
2022-11-15T23:45:12.979Z,11.60
2022-11-15T23:47:43.545Z,11.61
2022-11-15T23:50:14.926Z,11.60
2022-11-15T23:52:46.066Z,11.57
2022-11-15T23:55:16.296Z,11.59
2022-11-15T23:57:47.181Z,11.59
